sensor_id;sensor_type;location;lat;lon;timestamp;temperature;humidity
4725;DHT22;2376;53.544;10.226;2023-08-17T00:00:47;18.00;99.90
4725;DHT22;2376;53.544;10.226;2023-08-17T00:03:14;17.90;99.90
4725;DHT22;2376;53.544;10.226;2023-08-17T00:05:41;17.90;99.90
4725;DHT22;2376;53.544;10.226;2023-08-17T00:08:08;17.90;99.90
4725;DHT22;2376;53.544;10.226;2023-08-17T00:10:34;17.80;99.90
4725;DHT22;2376;53.544;10.226;2023-08-17T00:13:04;17.70;99.90
4725;DHT22;2376;53.544;10.226;2023-08-17T00:15:32;17.60;99.90
4725;DHT22;2376;53.544;10.226;2023-08-17T00:17:59;17.50;99.90
4725;DHT22;2376;53.544;10.226;2023-08-17T00:20:25;17.60;99.90
4725;DHT22;2376;53.544;10.226;2023-08-17T00:22:52;17.50;99.90
4725;DHT22;2376;53.544;10.226;2023-08-17T00:25:19;17.60;99.90
4725;DHT22;2376;53.544;10.226;2023-08-17T00:27:46;17.60;99.90
4725;DHT22;2376;53.544;10.226;2023-08-17T00:30:13;17.60;99.90
4725;DHT22;2376;53.544;10.226;2023-08-17T00:32:41;17.50;99.90
4725;DHT22;2376;53.544;10.226;2023-08-17T00:35:08;17.50;99.90
4725;DHT22;2376;53.544;10.226;2023-08-17T00:37:34;17.50;99.90
4725;DHT22;2376;53.544;10.226;2023-08-17T00:40:01;17.40;99.90
4725;DHT22;2376;53.544;10.226;2023-08-17T00:42:28;17.40;99.90
4725;DHT22;2376;53.544;10.226;2023-08-17T00:44:55;17.40;99.90
4725;DHT22;2376;53.544;10.226;2023-08-17T00:47:41;17.40;99.90
4725;DHT22;2376;53.544;10.226;2023-08-17T00:50:09;17.40;99.90
4725;DHT22;2376;53.544;10.226;2023-08-17T00:52:38;17.40;99.90
4725;DHT22;2376;53.544;10.226;2023-08-17T00:55:05;17.40;99.90
4725;DHT22;2376;53.544;10.226;2023-08-17T00:57:32;17.40;99.90
4725;DHT22;2376;53.544;10.226;2023-08-17T01:00:00;17.40;99.90
4725;DHT22;2376;53.544;10.226;2023-08-17T01:02:26;17.30;99.90
4725;DHT22;2376;53.544;10.226;2023-08-17T01:04:55;17.30;99.90
4725;DHT22;2376;53.544;10.226;2023-08-17T01:07:21;17.40;99.90
4725;DHT22;2376;53.544;10.226;2023-08-17T01:09:48;17.30;99.90
4725;DHT22;2376;53.544;10.226;2023-08-17T01:12:22;17.20;99.90
4725;DHT22;2376;53.544;10.226;2023-08-17T01:14:58;17.20;99.90
4725;DHT22;2376;53.544;10.226;2023-08-17T01:17:29;17.10;99.90
4725;DHT22;2376;53.544;10.226;2023-08-17T01:19:58;17.00;99.90
4725;DHT22;2376;53.544;10.226;2023-08-17T01:22:26;17.10;99.90
4725;DHT22;2376;53.544;10.226;2023-08-17T01:24:56;17.10;99.90
4725;DHT22;2376;53.544;10.226;2023-08-17T01:27:23;17.00;99.90
4725;DHT22;2376;53.544;10.226;2023-08-17T01:29:50;17.10;99.90
4725;DHT22;2376;53.544;10.226;2023-08-17T01:32:24;17.10;99.90
4725;DHT22;2376;53.544;10.226;2023-08-17T01:34:57;17.10;99.90
4725;DHT22;2376;53.544;10.226;2023-08-17T01:37:28;17.10;99.90
4725;DHT22;2376;53.544;10.226;2023-08-17T01:39:57;17.20;99.90
4725;DHT22;2376;53.544;10.226;2023-08-17T01:42:24;17.30;99.90
4725;DHT22;2376;53.544;10.226;2023-08-17T01:44:52;17.40;99.90
4725;DHT22;2376;53.544;10.226;2023-08-17T01:47:20;17.50;99.90
4725;DHT22;2376;53.544;10.226;2023-08-17T01:49:47;17.40;99.90
4725;DHT22;2376;53.544;10.226;2023-08-17T01:52:14;17.50;99.90
4725;DHT22;2376;53.544;10.226;2023-08-17T01:54:41;17.50;99.90
4725;DHT22;2376;53.544;10.226;2023-08-17T01:57:09;17.40;99.90
4725;DHT22;2376;53.544;10.226;2023-08-17T01:59:35;17.40;99.90
4725;DHT22;2376;53.544;10.226;2023-08-17T02:02:02;17.30;99.90
4725;DHT22;2376;53.544;10.226;2023-08-17T02:04:29;17.30;99.90
4725;DHT22;2376;53.544;10.226;2023-08-17T02:06:55;17.20;99.90
4725;DHT22;2376;53.544;10.226;2023-08-17T02:09:22;17.20;99.90
4725;DHT22;2376;53.544;10.226;2023-08-17T02:11:49;17.10;99.90
4725;DHT22;2376;53.544;10.226;2023-08-17T02:14:17;17.10;99.90
4725;DHT22;2376;53.544;10.226;2023-08-17T02:16:44;17.10;99.90
4725;DHT22;2376;53.544;10.226;2023-08-17T02:19:10;17.10;99.90
4725;DHT22;2376;53.544;10.226;2023-08-17T02:21:37;17.10;99.90
4725;DHT22;2376;53.544;10.226;2023-08-17T02:24:05;17.00;99.90
4725;DHT22;2376;53.544;10.226;2023-08-17T02:26:31;17.00;99.90
4725;DHT22;2376;53.544;10.226;2023-08-17T02:28:58;17.10;99.90
4725;DHT22;2376;53.544;10.226;2023-08-17T02:31:26;17.10;99.90
4725;DHT22;2376;53.544;10.226;2023-08-17T02:33:53;17.00;99.90
4725;DHT22;2376;53.544;10.226;2023-08-17T02:36:23;17.00;99.90
4725;DHT22;2376;53.544;10.226;2023-08-17T02:38:50;17.00;99.90
4725;DHT22;2376;53.544;10.226;2023-08-17T02:41:17;16.90;99.90
4725;DHT22;2376;53.544;10.226;2023-08-17T02:43:43;16.90;99.90
4725;DHT22;2376;53.544;10.226;2023-08-17T02:46:10;16.90;99.90
4725;DHT22;2376;53.544;10.226;2023-08-17T02:48:38;16.90;99.90
4725;DHT22;2376;53.544;10.226;2023-08-17T02:51:05;17.00;99.90
4725;DHT22;2376;53.544;10.226;2023-08-17T02:53:31;16.90;99.90
4725;DHT22;2376;53.544;10.226;2023-08-17T02:55:58;16.90;99.90
4725;DHT22;2376;53.544;10.226;2023-08-17T02:58:25;16.90;99.90
4725;DHT22;2376;53.544;10.226;2023-08-17T03:00:51;17.00;99.90
4725;DHT22;2376;53.544;10.226;2023-08-17T03:03:19;17.00;99.90
4725;DHT22;2376;53.544;10.226;2023-08-17T03:05:47;17.00;99.90
4725;DHT22;2376;53.544;10.226;2023-08-17T03:08:14;17.00;99.90
4725;DHT22;2376;53.544;10.226;2023-08-17T03:10:40;16.90;99.90
4725;DHT22;2376;53.544;10.226;2023-08-17T03:13:07;16.90;99.90
4725;DHT22;2376;53.544;10.226;2023-08-17T03:15:34;16.90;99.90
4725;DHT22;2376;53.544;10.226;2023-08-17T03:18:05;16.90;99.90
4725;DHT22;2376;53.544;10.226;2023-08-17T03:20:32;16.90;99.90
4725;DHT22;2376;53.544;10.226;2023-08-17T03:23:00;16.90;99.90
4725;DHT22;2376;53.544;10.226;2023-08-17T03:25:26;16.90;99.90
4725;DHT22;2376;53.544;10.226;2023-08-17T03:27:53;17.00;99.90
4725;DHT22;2376;53.544;10.226;2023-08-17T03:30:20;17.10;99.90
4725;DHT22;2376;53.544;10.226;2023-08-17T03:32:47;17.10;99.90
4725;DHT22;2376;53.544;10.226;2023-08-17T03:35:13;17.10;99.90
4725;DHT22;2376;53.544;10.226;2023-08-17T03:37:40;17.10;99.90
4725;DHT22;2376;53.544;10.226;2023-08-17T03:40:09;17.10;99.90
4725;DHT22;2376;53.544;10.226;2023-08-17T03:42:36;17.10;99.90
4725;DHT22;2376;53.544;10.226;2023-08-17T03:45:03;17.10;99.90
4725;DHT22;2376;53.544;10.226;2023-08-17T03:47:30;17.10;99.90
4725;DHT22;2376;53.544;10.226;2023-08-17T03:49:57;17.10;99.90
4725;DHT22;2376;53.544;10.226;2023-08-17T03:52:23;17.00;99.90
4725;DHT22;2376;53.544;10.226;2023-08-17T03:54:50;17.10;99.90
4725;DHT22;2376;53.544;10.226;2023-08-17T03:57:18;17.10;99.90
4725;DHT22;2376;53.544;10.226;2023-08-17T03:59:45;17.20;99.90
4725;DHT22;2376;53.544;10.226;2023-08-17T04:02:12;17.20;99.90
4725;DHT22;2376;53.544;10.226;2023-08-17T04:04:38;17.10;99.90
4725;DHT22;2376;53.544;10.226;2023-08-17T04:07:05;17.20;99.90
4725;DHT22;2376;53.544;10.226;2023-08-17T04:09:32;17.10;99.90
4725;DHT22;2376;53.544;10.226;2023-08-17T04:11:59;17.10;99.90
4725;DHT22;2376;53.544;10.226;2023-08-17T04:14:27;17.10;99.90
4725;DHT22;2376;53.544;10.226;2023-08-17T04:16:54;17.10;99.90
4725;DHT22;2376;53.544;10.226;2023-08-17T04:19:22;17.20;99.90
4725;DHT22;2376;53.544;10.226;2023-08-17T04:21:48;17.10;99.90
4725;DHT22;2376;53.544;10.226;2023-08-17T04:24:15;17.10;99.90
4725;DHT22;2376;53.544;10.226;2023-08-17T04:26:42;17.20;99.90
4725;DHT22;2376;53.544;10.226;2023-08-17T04:29:09;17.20;99.90
4725;DHT22;2376;53.544;10.226;2023-08-17T04:31:36;17.40;99.90
4725;DHT22;2376;53.544;10.226;2023-08-17T04:34:03;17.20;99.90
4725;DHT22;2376;53.544;10.226;2023-08-17T04:36:30;17.20;99.90
4725;DHT22;2376;53.544;10.226;2023-08-17T04:38:57;17.20;99.90
4725;DHT22;2376;53.544;10.226;2023-08-17T04:41:24;17.20;99.90
4725;DHT22;2376;53.544;10.226;2023-08-17T04:43:50;17.20;99.90
4725;DHT22;2376;53.544;10.226;2023-08-17T04:46:17;17.20;99.90
4725;DHT22;2376;53.544;10.226;2023-08-17T04:48:45;17.20;99.90
4725;DHT22;2376;53.544;10.226;2023-08-17T04:51:12;17.30;99.90
4725;DHT22;2376;53.544;10.226;2023-08-17T04:53:38;17.30;99.90
4725;DHT22;2376;53.544;10.226;2023-08-17T04:56:05;17.30;99.90
4725;DHT22;2376;53.544;10.226;2023-08-17T04:58:32;17.40;99.90
4725;DHT22;2376;53.544;10.226;2023-08-17T05:00:59;17.50;99.90
4725;DHT22;2376;53.544;10.226;2023-08-17T05:03:26;17.50;99.90
4725;DHT22;2376;53.544;10.226;2023-08-17T05:05:54;17.60;99.90
4725;DHT22;2376;53.544;10.226;2023-08-17T05:08:20;17.60;99.90
4725;DHT22;2376;53.544;10.226;2023-08-17T05:10:47;17.60;99.90
4725;DHT22;2376;53.544;10.226;2023-08-17T05:13:14;17.60;99.90
4725;DHT22;2376;53.544;10.226;2023-08-17T05:15:41;17.60;99.90
4725;DHT22;2376;53.544;10.226;2023-08-17T05:18:08;17.80;99.90
4725;DHT22;2376;53.544;10.226;2023-08-17T05:20:34;17.80;99.90
4725;DHT22;2376;53.544;10.226;2023-08-17T05:23:03;18.00;99.90
4725;DHT22;2376;53.544;10.226;2023-08-17T05:25:29;18.10;99.90
4725;DHT22;2376;53.544;10.226;2023-08-17T05:27:56;18.20;99.90
4725;DHT22;2376;53.544;10.226;2023-08-17T05:30:23;18.20;99.90
4725;DHT22;2376;53.544;10.226;2023-08-17T05:32:50;18.20;99.90
4725;DHT22;2376;53.544;10.226;2023-08-17T05:35:17;18.20;99.90
4725;DHT22;2376;53.544;10.226;2023-08-17T05:37:43;18.20;99.90
4725;DHT22;2376;53.544;10.226;2023-08-17T05:40:12;18.00;99.90
4725;DHT22;2376;53.544;10.226;2023-08-17T05:42:39;17.80;99.90
4725;DHT22;2376;53.544;10.226;2023-08-17T05:45:06;17.60;99.90
4725;DHT22;2376;53.544;10.226;2023-08-17T05:47:33;17.40;99.90
4725;DHT22;2376;53.544;10.226;2023-08-17T05:50:00;17.20;99.90
4725;DHT22;2376;53.544;10.226;2023-08-17T05:52:26;17.20;99.90
4725;DHT22;2376;53.544;10.226;2023-08-17T05:54:53;17.10;99.90
4725;DHT22;2376;53.544;10.226;2023-08-17T05:57:21;17.10;99.90
4725;DHT22;2376;53.544;10.226;2023-08-17T05:59:48;17.00;99.90
4725;DHT22;2376;53.544;10.226;2023-08-17T06:02:14;17.00;99.90
4725;DHT22;2376;53.544;10.226;2023-08-17T06:04:41;16.80;99.90
4725;DHT22;2376;53.544;10.226;2023-08-17T06:07:08;16.80;99.90
4725;DHT22;2376;53.544;10.226;2023-08-17T06:09:35;16.80;99.90
4725;DHT22;2376;53.544;10.226;2023-08-17T06:12:01;16.80;99.90
4725;DHT22;2376;53.544;10.226;2023-08-17T06:14:29;16.80;99.90
4725;DHT22;2376;53.544;10.226;2023-08-17T06:16:56;16.90;99.90
4725;DHT22;2376;53.544;10.226;2023-08-17T06:19:22;16.80;99.90
4725;DHT22;2376;53.544;10.226;2023-08-17T06:21:49;16.70;99.90
4725;DHT22;2376;53.544;10.226;2023-08-17T06:24:16;16.70;99.90
4725;DHT22;2376;53.544;10.226;2023-08-17T06:26:43;16.80;99.90
4725;DHT22;2376;53.544;10.226;2023-08-17T06:29:11;16.70;99.90
4725;DHT22;2376;53.544;10.226;2023-08-17T06:31:39;16.70;99.90
4725;DHT22;2376;53.544;10.226;2023-08-17T06:34:05;16.70;99.90
4725;DHT22;2376;53.544;10.226;2023-08-17T06:36:32;16.80;99.90
4725;DHT22;2376;53.544;10.226;2023-08-17T06:38:59;16.90;99.90
4725;DHT22;2376;53.544;10.226;2023-08-17T06:41:25;16.90;99.90
4725;DHT22;2376;53.544;10.226;2023-08-17T06:43:52;16.80;99.90
4725;DHT22;2376;53.544;10.226;2023-08-17T06:46:19;16.70;99.90
4725;DHT22;2376;53.544;10.226;2023-08-17T06:48:47;16.60;99.90
4725;DHT22;2376;53.544;10.226;2023-08-17T06:51:13;16.70;99.90
4725;DHT22;2376;53.544;10.226;2023-08-17T06:53:41;16.70;99.90
4725;DHT22;2376;53.544;10.226;2023-08-17T06:56:09;16.70;99.90
4725;DHT22;2376;53.544;10.226;2023-08-17T06:58:35;16.70;99.90
4725;DHT22;2376;53.544;10.226;2023-08-17T07:01:02;16.70;99.90
4725;DHT22;2376;53.544;10.226;2023-08-17T07:03:29;16.60;99.90
4725;DHT22;2376;53.544;10.226;2023-08-17T07:05:57;16.50;99.90
4725;DHT22;2376;53.544;10.226;2023-08-17T07:08:24;16.60;99.90
4725;DHT22;2376;53.544;10.226;2023-08-17T07:10:50;16.70;99.90
4725;DHT22;2376;53.544;10.226;2023-08-17T07:13:17;16.60;99.90
4725;DHT22;2376;53.544;10.226;2023-08-17T07:15:43;16.40;99.90
4725;DHT22;2376;53.544;10.226;2023-08-17T07:18:10;16.40;99.90
4725;DHT22;2376;53.544;10.226;2023-08-17T07:20:37;16.30;99.90
4725;DHT22;2376;53.544;10.226;2023-08-17T07:23:05;16.30;99.90
4725;DHT22;2376;53.544;10.226;2023-08-17T07:25:31;16.20;99.90
4725;DHT22;2376;53.544;10.226;2023-08-17T07:27:58;16.20;99.90
4725;DHT22;2376;53.544;10.226;2023-08-17T07:30:25;16.20;99.90
4725;DHT22;2376;53.544;10.226;2023-08-17T07:32:52;16.10;99.90
4725;DHT22;2376;53.544;10.226;2023-08-17T07:35:19;16.10;99.90
4725;DHT22;2376;53.544;10.226;2023-08-17T07:37:45;16.00;99.90
4725;DHT22;2376;53.544;10.226;2023-08-17T07:40:13;16.10;99.90
4725;DHT22;2376;53.544;10.226;2023-08-17T07:42:40;16.10;99.90
4725;DHT22;2376;53.544;10.226;2023-08-17T07:45:07;16.00;99.90
4725;DHT22;2376;53.544;10.226;2023-08-17T07:47:34;16.10;99.90
4725;DHT22;2376;53.544;10.226;2023-08-17T07:50:02;16.10;99.90
4725;DHT22;2376;53.544;10.226;2023-08-17T07:52:29;16.10;99.90
4725;DHT22;2376;53.544;10.226;2023-08-17T07:54:56;16.10;99.90
4725;DHT22;2376;53.544;10.226;2023-08-17T07:57:24;16.10;99.90
4725;DHT22;2376;53.544;10.226;2023-08-17T07:59:51;16.20;99.90
4725;DHT22;2376;53.544;10.226;2023-08-17T08:02:19;16.20;99.90
4725;DHT22;2376;53.544;10.226;2023-08-17T08:04:45;16.20;99.90
4725;DHT22;2376;53.544;10.226;2023-08-17T08:07:12;16.10;99.90
4725;DHT22;2376;53.544;10.226;2023-08-17T08:09:39;16.10;99.90
4725;DHT22;2376;53.544;10.226;2023-08-17T08:12:06;16.10;99.90
4725;DHT22;2376;53.544;10.226;2023-08-17T08:14:35;16.00;99.90
4725;DHT22;2376;53.544;10.226;2023-08-17T08:17:02;16.00;99.90
4725;DHT22;2376;53.544;10.226;2023-08-17T08:19:28;16.00;99.90
4725;DHT22;2376;53.544;10.226;2023-08-17T08:21:55;15.90;99.90
4725;DHT22;2376;53.544;10.226;2023-08-17T08:24:21;16.00;99.90
4725;DHT22;2376;53.544;10.226;2023-08-17T08:26:48;16.00;99.90
4725;DHT22;2376;53.544;10.226;2023-08-17T08:29:16;16.00;99.90
4725;DHT22;2376;53.544;10.226;2023-08-17T08:31:44;16.00;99.90
4725;DHT22;2376;53.544;10.226;2023-08-17T08:34:11;16.00;99.90
4725;DHT22;2376;53.544;10.226;2023-08-17T08:36:37;16.00;99.90
4725;DHT22;2376;53.544;10.226;2023-08-17T08:39:04;16.10;99.90
4725;DHT22;2376;53.544;10.226;2023-08-17T08:41:31;16.10;99.90
4725;DHT22;2376;53.544;10.226;2023-08-17T08:43:58;16.20;99.90
4725;DHT22;2376;53.544;10.226;2023-08-17T08:46:26;16.30;99.90
4725;DHT22;2376;53.544;10.226;2023-08-17T08:48:57;16.30;99.90
4725;DHT22;2376;53.544;10.226;2023-08-17T08:51:27;16.40;99.90
4725;DHT22;2376;53.544;10.226;2023-08-17T08:54:00;16.30;99.90
4725;DHT22;2376;53.544;10.226;2023-08-17T08:56:29;16.40;99.90
4725;DHT22;2376;53.544;10.226;2023-08-17T08:58:58;16.40;99.90
4725;DHT22;2376;53.544;10.226;2023-08-17T09:01:25;16.40;99.90
4725;DHT22;2376;53.544;10.226;2023-08-17T09:03:52;16.40;99.90
4725;DHT22;2376;53.544;10.226;2023-08-17T09:06:22;16.50;99.90
4725;DHT22;2376;53.544;10.226;2023-08-17T09:08:50;16.50;99.90
4725;DHT22;2376;53.544;10.226;2023-08-17T09:11:17;16.50;99.90
4725;DHT22;2376;53.544;10.226;2023-08-17T09:13:44;16.40;99.90
4725;DHT22;2376;53.544;10.226;2023-08-17T09:16:11;16.50;99.90
4725;DHT22;2376;53.544;10.226;2023-08-17T09:18:37;16.60;99.90
4725;DHT22;2376;53.544;10.226;2023-08-17T09:21:04;16.40;99.90
4725;DHT22;2376;53.544;10.226;2023-08-17T09:23:32;16.40;99.90
4725;DHT22;2376;53.544;10.226;2023-08-17T09:26:07;16.40;99.90
4725;DHT22;2376;53.544;10.226;2023-08-17T09:28:38;16.40;99.90
4725;DHT22;2376;53.544;10.226;2023-08-17T09:31:05;16.40;99.90
4725;DHT22;2376;53.544;10.226;2023-08-17T09:33:32;16.40;99.90
4725;DHT22;2376;53.544;10.226;2023-08-17T09:36:00;16.40;99.90
4725;DHT22;2376;53.544;10.226;2023-08-17T09:38:27;16.30;99.90
4725;DHT22;2376;53.544;10.226;2023-08-17T09:40:57;16.20;99.90
4725;DHT22;2376;53.544;10.226;2023-08-17T09:43:24;16.10;99.90
4725;DHT22;2376;53.544;10.226;2023-08-17T09:45:54;16.00;99.90
4725;DHT22;2376;53.544;10.226;2023-08-17T09:48:22;15.90;99.90
4725;DHT22;2376;53.544;10.226;2023-08-17T09:50:51;15.80;99.90
4725;DHT22;2376;53.544;10.226;2023-08-17T09:53:18;15.70;99.90
4725;DHT22;2376;53.544;10.226;2023-08-17T09:55:45;15.60;99.90
4725;DHT22;2376;53.544;10.226;2023-08-17T09:58:14;15.60;99.90
4725;DHT22;2376;53.544;10.226;2023-08-17T10:00:44;15.60;99.90
4725;DHT22;2376;53.544;10.226;2023-08-17T10:03:11;15.50;99.90
4725;DHT22;2376;53.544;10.226;2023-08-17T10:05:42;15.40;99.90
4725;DHT22;2376;53.544;10.226;2023-08-17T10:08:10;15.40;99.90
4725;DHT22;2376;53.544;10.226;2023-08-17T10:10:40;15.40;99.90
4725;DHT22;2376;53.544;10.226;2023-08-17T10:13:10;15.50;99.90
4725;DHT22;2376;53.544;10.226;2023-08-17T10:15:45;15.70;99.90
4725;DHT22;2376;53.544;10.226;2023-08-17T10:18:25;15.70;99.90
4725;DHT22;2376;53.544;10.226;2023-08-17T10:20:59;15.60;99.90
4725;DHT22;2376;53.544;10.226;2023-08-17T10:23:27;15.70;99.90
4725;DHT22;2376;53.544;10.226;2023-08-17T10:25:55;15.70;99.90
4725;DHT22;2376;53.544;10.226;2023-08-17T10:28:23;15.70;99.90
4725;DHT22;2376;53.544;10.226;2023-08-17T10:30:52;15.70;99.90
4725;DHT22;2376;53.544;10.226;2023-08-17T10:33:19;15.80;99.90
4725;DHT22;2376;53.544;10.226;2023-08-17T10:35:46;15.70;99.90
4725;DHT22;2376;53.544;10.226;2023-08-17T10:38:15;15.50;99.90
4725;DHT22;2376;53.544;10.226;2023-08-17T10:40:42;15.50;99.90
4725;DHT22;2376;53.544;10.226;2023-08-17T10:43:09;15.50;99.90
4725;DHT22;2376;53.544;10.226;2023-08-17T10:45:37;15.40;99.90
4725;DHT22;2376;53.544;10.226;2023-08-17T10:48:28;15.30;99.90
4725;DHT22;2376;53.544;10.226;2023-08-17T10:51:00;15.30;99.90
4725;DHT22;2376;53.544;10.226;2023-08-17T10:53:27;15.20;99.90
4725;DHT22;2376;53.544;10.226;2023-08-17T10:55:59;15.30;99.90
4725;DHT22;2376;53.544;10.226;2023-08-17T10:58:31;15.50;99.90
4725;DHT22;2376;53.544;10.226;2023-08-17T11:00:58;15.40;99.90
4725;DHT22;2376;53.544;10.226;2023-08-17T11:03:25;15.50;99.90
4725;DHT22;2376;53.544;10.226;2023-08-17T11:05:55;15.60;99.90
4725;DHT22;2376;53.544;10.226;2023-08-17T11:08:26;15.70;99.90
4725;DHT22;2376;53.544;10.226;2023-08-17T11:10:58;15.90;99.90
4725;DHT22;2376;53.544;10.226;2023-08-17T11:13:27;16.10;99.90
4725;DHT22;2376;53.544;10.226;2023-08-17T11:15:54;16.20;99.90
4725;DHT22;2376;53.544;10.226;2023-08-17T11:18:22;16.30;99.90
4725;DHT22;2376;53.544;10.226;2023-08-17T11:20:49;16.50;99.90
4725;DHT22;2376;53.544;10.226;2023-08-17T11:23:18;16.50;99.90
4725;DHT22;2376;53.544;10.226;2023-08-17T11:25:45;16.50;99.90
4725;DHT22;2376;53.544;10.226;2023-08-17T11:28:12;16.80;99.90
4725;DHT22;2376;53.544;10.226;2023-08-17T11:30:40;16.80;99.90
4725;DHT22;2376;53.544;10.226;2023-08-17T11:33:09;16.70;99.90
4725;DHT22;2376;53.544;10.226;2023-08-17T11:35:35;16.40;99.90
4725;DHT22;2376;53.544;10.226;2023-08-17T11:38:03;16.30;99.90
4725;DHT22;2376;53.544;10.226;2023-08-17T11:40:32;16.30;99.90
4725;DHT22;2376;53.544;10.226;2023-08-17T11:43:00;16.20;99.90
4725;DHT22;2376;53.544;10.226;2023-08-17T11:45:26;16.30;99.90
4725;DHT22;2376;53.544;10.226;2023-08-17T11:47:53;16.50;99.90
4725;DHT22;2376;53.544;10.226;2023-08-17T11:50:20;16.60;99.90
4725;DHT22;2376;53.544;10.226;2023-08-17T11:52:47;16.70;99.90
4725;DHT22;2376;53.544;10.226;2023-08-17T11:55:16;16.90;99.90
4725;DHT22;2376;53.544;10.226;2023-08-17T11:57:45;17.10;99.90
4725;DHT22;2376;53.544;10.226;2023-08-17T12:00:18;17.20;99.90
4725;DHT22;2376;53.544;10.226;2023-08-17T12:02:47;17.30;99.90
4725;DHT22;2376;53.544;10.226;2023-08-17T12:05:14;17.50;99.90
4725;DHT22;2376;53.544;10.226;2023-08-17T12:07:45;17.40;99.90
4725;DHT22;2376;53.544;10.226;2023-08-17T12:10:12;17.30;99.90
4725;DHT22;2376;53.544;10.226;2023-08-17T12:12:38;17.20;99.90
4725;DHT22;2376;53.544;10.226;2023-08-17T12:15:09;17.10;99.90
4725;DHT22;2376;53.544;10.226;2023-08-17T12:17:43;17.20;99.90
4725;DHT22;2376;53.544;10.226;2023-08-17T12:20:15;17.10;99.90
4725;DHT22;2376;53.544;10.226;2023-08-17T12:22:42;16.90;99.90
4725;DHT22;2376;53.544;10.226;2023-08-17T12:25:09;16.90;99.90
4725;DHT22;2376;53.544;10.226;2023-08-17T12:27:36;17.10;99.90
4725;DHT22;2376;53.544;10.226;2023-08-17T12:30:04;17.10;99.90
4725;DHT22;2376;53.544;10.226;2023-08-17T12:32:32;17.10;99.90
4725;DHT22;2376;53.544;10.226;2023-08-17T12:34:59;17.20;99.90
4725;DHT22;2376;53.544;10.226;2023-08-17T12:37:26;17.20;99.90
4725;DHT22;2376;53.544;10.226;2023-08-17T12:39:52;17.20;99.90
4725;DHT22;2376;53.544;10.226;2023-08-17T12:42:19;17.30;99.90
4725;DHT22;2376;53.544;10.226;2023-08-17T12:44:46;17.20;99.90
4725;DHT22;2376;53.544;10.226;2023-08-17T12:47:12;17.20;99.90
4725;DHT22;2376;53.544;10.226;2023-08-17T12:49:40;17.20;99.90
4725;DHT22;2376;53.544;10.226;2023-08-17T12:52:07;17.10;99.90
4725;DHT22;2376;53.544;10.226;2023-08-17T12:54:34;17.20;99.90
4725;DHT22;2376;53.544;10.226;2023-08-17T12:57:00;17.30;99.90
4725;DHT22;2376;53.544;10.226;2023-08-17T12:59:28;17.10;99.90
4725;DHT22;2376;53.544;10.226;2023-08-17T13:01:55;17.20;99.90
4725;DHT22;2376;53.544;10.226;2023-08-17T13:04:21;17.20;99.90
4725;DHT22;2376;53.544;10.226;2023-08-17T13:06:49;17.10;99.90
4725;DHT22;2376;53.544;10.226;2023-08-17T13:09:16;17.10;99.90
4725;DHT22;2376;53.544;10.226;2023-08-17T13:11:44;17.20;99.90
4725;DHT22;2376;53.544;10.226;2023-08-17T13:14:11;17.30;99.90
4725;DHT22;2376;53.544;10.226;2023-08-17T13:16:38;17.40;99.90
4725;DHT22;2376;53.544;10.226;2023-08-17T13:19:04;17.40;99.90
4725;DHT22;2376;53.544;10.226;2023-08-17T13:21:31;17.40;99.90
4725;DHT22;2376;53.544;10.226;2023-08-17T13:23:59;17.40;99.90
4725;DHT22;2376;53.544;10.226;2023-08-17T13:26:28;17.50;99.90
4725;DHT22;2376;53.544;10.226;2023-08-17T13:28:55;17.50;99.90
4725;DHT22;2376;53.544;10.226;2023-08-17T13:31:21;17.60;99.90
4725;DHT22;2376;53.544;10.226;2023-08-17T13:33:48;17.60;99.90
4725;DHT22;2376;53.544;10.226;2023-08-17T13:36:15;17.70;99.90
4725;DHT22;2376;53.544;10.226;2023-08-17T13:38:41;17.60;99.90
4725;DHT22;2376;53.544;10.226;2023-08-17T13:41:09;17.60;99.90
4725;DHT22;2376;53.544;10.226;2023-08-17T13:43:36;17.80;99.90
4725;DHT22;2376;53.544;10.226;2023-08-17T13:46:03;17.80;99.90
4725;DHT22;2376;53.544;10.226;2023-08-17T13:48:30;17.80;99.90
4725;DHT22;2376;53.544;10.226;2023-08-17T13:50:57;17.70;99.90
4725;DHT22;2376;53.544;10.226;2023-08-17T13:53:24;17.80;99.90
4725;DHT22;2376;53.544;10.226;2023-08-17T13:55:50;17.90;99.90
4725;DHT22;2376;53.544;10.226;2023-08-17T13:58:18;17.80;99.90
4725;DHT22;2376;53.544;10.226;2023-08-17T14:00:45;17.70;99.90
4725;DHT22;2376;53.544;10.226;2023-08-17T14:03:11;17.80;99.90
4725;DHT22;2376;53.544;10.226;2023-08-17T14:05:38;17.70;99.90
4725;DHT22;2376;53.544;10.226;2023-08-17T14:08:05;17.50;99.90
4725;DHT22;2376;53.544;10.226;2023-08-17T14:10:32;17.40;99.90
4725;DHT22;2376;53.544;10.226;2023-08-17T14:13:01;17.30;99.90
4725;DHT22;2376;53.544;10.226;2023-08-17T14:15:30;17.30;99.90
4725;DHT22;2376;53.544;10.226;2023-08-17T14:17:56;17.30;99.90
4725;DHT22;2376;53.544;10.226;2023-08-17T14:20:23;17.30;99.90
4725;DHT22;2376;53.544;10.226;2023-08-17T14:22:50;17.20;99.90
4725;DHT22;2376;53.544;10.226;2023-08-17T14:25:16;17.30;99.90
4725;DHT22;2376;53.544;10.226;2023-08-17T14:27:43;17.20;99.90
4725;DHT22;2376;53.544;10.226;2023-08-17T14:30:10;17.20;99.90
4725;DHT22;2376;53.544;10.226;2023-08-17T14:32:38;17.30;99.90
4725;DHT22;2376;53.544;10.226;2023-08-17T14:35:05;17.20;99.90
4725;DHT22;2376;53.544;10.226;2023-08-17T14:37:32;17.20;99.90
4725;DHT22;2376;53.544;10.226;2023-08-17T14:39:59;17.20;99.90
4725;DHT22;2376;53.544;10.226;2023-08-17T14:42:26;17.20;99.90
4725;DHT22;2376;53.544;10.226;2023-08-17T14:44:54;17.20;99.90
4725;DHT22;2376;53.544;10.226;2023-08-17T14:47:21;17.20;99.90
4725;DHT22;2376;53.544;10.226;2023-08-17T14:49:49;17.20;99.90
4725;DHT22;2376;53.544;10.226;2023-08-17T14:52:16;17.20;99.90
4725;DHT22;2376;53.544;10.226;2023-08-17T14:54:42;17.10;99.90
4725;DHT22;2376;53.544;10.226;2023-08-17T14:57:09;17.10;99.90
4725;DHT22;2376;53.544;10.226;2023-08-17T14:59:36;17.00;99.90
4725;DHT22;2376;53.544;10.226;2023-08-17T15:02:03;16.90;99.90
4725;DHT22;2376;53.544;10.226;2023-08-17T15:04:29;16.90;99.90
4725;DHT22;2376;53.544;10.226;2023-08-17T15:06:58;16.90;99.90
4725;DHT22;2376;53.544;10.226;2023-08-17T15:09:25;16.80;99.90
4725;DHT22;2376;53.544;10.226;2023-08-17T15:11:52;16.80;99.90
4725;DHT22;2376;53.544;10.226;2023-08-17T15:14:18;16.70;99.90
4725;DHT22;2376;53.544;10.226;2023-08-17T15:16:45;16.70;99.90
4725;DHT22;2376;53.544;10.226;2023-08-17T15:19:12;16.70;99.90
4725;DHT22;2376;53.544;10.226;2023-08-17T15:21:38;16.60;99.90
4725;DHT22;2376;53.544;10.226;2023-08-17T15:24:06;16.70;99.90
4725;DHT22;2376;53.544;10.226;2023-08-17T15:26:33;16.70;99.90
4725;DHT22;2376;53.544;10.226;2023-08-17T15:29:00;16.70;99.90
4725;DHT22;2376;53.544;10.226;2023-08-17T15:31:26;16.70;99.90
4725;DHT22;2376;53.544;10.226;2023-08-17T15:33:53;16.60;99.90
4725;DHT22;2376;53.544;10.226;2023-08-17T15:36:20;16.60;99.90
4725;DHT22;2376;53.544;10.226;2023-08-17T15:38:49;16.50;99.90
4725;DHT22;2376;53.544;10.226;2023-08-17T15:41:18;16.50;99.90
4725;DHT22;2376;53.544;10.226;2023-08-17T15:43:44;16.50;99.90
4725;DHT22;2376;53.544;10.226;2023-08-17T15:46:11;16.50;99.90